Home   Weather   France   Rodez   Past weeks
Flag for France

Past Weather in Rodez, Aveyron, France — Yesterday and Last 2 Weeks

Currently: 48 °F. Sunny. (Weather station: Rodez Airport, France). See more current weather

Past Weather in Rodez — Graph

°F

Rodez Temperature Yesterday

Maximum temperature yesterday: 48 °F (at 3:00 pm)
Minimum temperature yesterday: 25 °F (at 4:30 am)
Average temperature yesterday: 34 °F

High & Low Weather Summary for the Past Weeks

 TemperatureHumidityPressure
High55 °F (Nov 27, 1:00 pm)100% (Nov 21, 3:00 pm)30.42 "Hg (Nov 21, 3:00 pm)
Low25 °F (Dec 5, 4:30 am)44% (Nov 27, 11:30 am)29.56 "Hg (Nov 21, 4:00 pm)
Average40 °F89%29.99 "Hg
* Reported Nov 21 3:00 pm — Dec 6 3:00 pm, Rodez. Weather by CustomWeather, © 2022

Note: Actual official high and low records may vary slightly from our data, if they occured in-between our weather recording intervals... More about our weather records

Rodez Weather History for the Previous 24 Hours

Scroll right to see more
 ConditionsComfort  
Time TempWeatherWind HumidityBarometerVisibility
3:00 pm
Tue, Dec 6
48 °FSunny.2 mph50%29.98 "Hg10 mi
2:30 pm46 °FSunny.2 mph62%29.98 "Hg10 mi
2:00 pm46 °FSunny.2 mph57%29.98 "Hg10 mi
1:30 pm46 °FSunny.No wind53%29.98 "Hg10 mi
1:00 pm46 °FSunny.3 mph53%29.98 "Hg10 mi
12:30 pm43 °FPassing clouds.3 mph61%29.98 "HgN/A
12:00 pm41 °FSunny.3 mph66%30.01 "Hg10 mi
11:30 am41 °FSunny.2 mph66%30.01 "Hg10 mi
11:00 am39 °FSunny.2 mph65%30.01 "Hg10 mi
10:30 am37 °FSunny.2 mph70%30.01 "Hg10 mi
10:00 am34 °FSunny.3 mph81%29.98 "Hg10 mi
9:30 am30 °FSunny.2 mph86%29.98 "Hg10 mi
9:00 am28 °FSunny.No wind93%29.98 "Hg10 mi
8:30 am25 °FPassing clouds.5 mph86%29.98 "HgN/A
8:00 am25 °FClear.2 mph93%29.98 "Hg10 mi
7:30 am25 °FClear.2 mph93%29.98 "Hg10 mi
7:00 am25 °FClear.3 mph93%29.98 "Hg10 mi
6:30 am25 °FClear.2 mph93%29.98 "Hg10 mi
6:00 am25 °FClear.3 mph93%29.98 "Hg10 mi
5:30 am28 °FClear.2 mph93%29.98 "Hg10 mi
5:00 am27 °FClear.2 mph86%29.98 "Hg10 mi
4:30 am28 °FClear.1 mph93%29.98 "Hg10 mi
4:00 am28 °FClear.3 mph100%29.98 "Hg10 mi
3:30 am27 °FClear.3 mph100%29.98 "Hg10 mi
3:00 am25 °FClear.3 mph93%29.98 "Hg10 mi
2:30 am27 °FClear.3 mph93%29.98 "Hg10 mi
2:00 am27 °FClear.3 mph100%29.98 "Hg10 mi
12:30 am27 °FClear.5 mph93%30.01 "Hg10 mi
12:00 am30 °FClear.3 mph86%30.01 "Hg10 mi
11:30 pm
Mon, Dec 5
30 °FClear.2 mph93%30.01 "Hg10 mi
11:00 pm34 °FClear.6 mph87%30.01 "Hg10 mi
10:30 pm32 °FClear.2 mph100%30.01 "Hg10 mi
10:00 pm32 °FClear.2 mph87%30.04 "Hg10 mi
9:30 pm34 °FClear.3 mph87%30.01 "Hg10 mi
9:00 pm37 °FClear.5 mph81%30.01 "Hg10 mi
8:30 pm37 °FClear.6 mph81%30.01 "Hg10 mi
8:00 pm37 °FClear.6 mph81%30.01 "Hg10 mi
7:30 pm37 °FClear.7 mph81%30.01 "Hg10 mi
7:00 pm36 °FClear.6 mph87%30.01 "Hg10 mi
6:00 pm41 °FClear.6 mph76%30.01 "Hg10 mi
5:30 pm41 °FClear.6 mph76%30.01 "Hg10 mi
5:00 pm43 °FSunny.6 mph76%30.01 "Hg10 mi
4:30 pm46 °FSunny.6 mph66%30.01 "Hg10 mi
4:00 pm46 °FSunny.5 mph71%30.01 "Hg10 mi
Weather by CustomWeather, © 2022

See weather overview